Hlavní strana
METAR-TAF:

METAR-TAF

Letiště :

Kinshasa, Kongo

zeměpisná šířka: 04-23S, zeměpisná délka: 015-26E, výška: 309 m

Aktuální stav počasí

Zpráva byla vytvořena před 25 hodinami a 15 minutami, v 00:00 UTC
Bezvětří
Teplota 23°C
Vlhkost vzduchu 78%
Tlak 1015 hPa
Viditelnost: 7000 m
Skoro jasno ve výšce 1800 ft

METAR: FZAA 210000Z 00000KT 7000 FEW018 23/19 Q1015 NOSIG

Čas: 02:15 (01:15 UTC)

Předpověď počasí

Zpráva byla vytvořena před 14 hodinami a 15 minutami, v 11:00 UTC
Předpověď platná od 21 v 12 UTC do 22 v 18 UTC
Západoseverozápadní vítr 10 kt
Viditelnost 10 km a více
Změna
od 21 v 21 UTC do 21 v 23 UTC
Jihozápadní vítr 4 kt
Viditelnost: 6000 m
Oblačno až skoro zataženo ve výšce 1800 ft
Od 22 v 1100 UTC
Severozápadní vítr 12 kt
Viditelnost 10 km a více
Skoro jasno ve výšce 2300 ft

TAF: FZAA 211100Z 2112/2218 30010KT 9999 NSC BECMG 2121/2123 22004KT 6000 BKN018 FM221100 32012KT 9999 FEW023

Stav a předpovědi počasí z více než 4 000 letišť (zprávy METAR a TAF).

Červené a žluté tečky na mapě představují dostupné meteorologické stanice.

Když kurzor umístíte na tečku, zobrazí se název stanice.

Pak kliknutím zobrazíte stav a předpověď počasí.

Chcete-li změnit mapu, kliknutím na zelené tlačítko se znaménkem +mapu přiblížíte, kliknutím na zelené tlačítko se znaménkem – mapu oddálíte a kliknutím na zelené šipky přejdete na sousední mapy.


METAR-TAF: